createdAt,value
2018-06-03T06:15:35.381Z,1010.90
2018-06-03T06:16:35.341Z,1010.89
2018-06-03T06:18:28.460Z,1010.90
2018-06-03T06:19:28.394Z,1010.89
2018-06-03T06:21:21.527Z,1010.93
2018-06-03T06:22:21.480Z,1010.94
2018-06-03T06:24:15.438Z,1010.96
2018-06-03T06:25:15.388Z,1010.97
2018-06-03T06:26:15.383Z,1010.95
2018-06-03T06:27:15.387Z,1010.94
2018-06-03T06:28:15.366Z,1010.96
2018-06-03T06:29:15.353Z,1010.97
2018-06-03T06:30:15.346Z,1010.95
2018-06-03T06:31:15.326Z,1010.98
2018-06-03T06:32:15.314Z,1011.00
2018-06-03T06:33:15.310Z,1011.00
2018-06-03T06:34:15.307Z,1010.99
2018-06-03T06:35:15.319Z,1011.00
2018-06-03T06:36:15.293Z,1011.06
2018-06-03T06:37:15.277Z,1010.99
2018-06-03T06:38:15.288Z,1010.97
2018-06-03T06:39:15.276Z,1010.97
2018-06-03T06:40:15.270Z,1011.02
2018-06-03T06:41:15.236Z,1011.05
2018-06-03T06:42:15.220Z,1011.04
2018-06-03T06:43:15.211Z,1011.00
2018-06-03T06:44:15.202Z,1011.02
2018-06-03T06:45:15.238Z,1011.06
2018-06-03T06:46:15.194Z,1011.05
2018-06-03T06:47:15.190Z,1011.07
2018-06-03T06:48:15.183Z,1011.02
2018-06-03T06:49:15.165Z,1011.07
2018-06-03T06:50:15.158Z,1011.05
2018-06-03T06:51:15.238Z,1011.07
2018-06-03T06:52:15.166Z,1011.08
2018-06-03T06:53:15.126Z,1011.09
2018-06-03T06:54:15.142Z,1011.10
2018-06-03T06:55:15.115Z,1011.08
2018-06-03T06:56:15.095Z,1011.15
2018-06-03T06:57:15.107Z,1011.15
2018-06-03T06:58:15.085Z,1011.12
2018-06-03T06:59:15.085Z,1011.13
2018-06-03T07:00:15.104Z,1011.15
2018-06-03T07:01:15.098Z,1011.10
2018-06-03T07:02:15.067Z,1011.16
2018-06-03T07:03:15.041Z,1011.18
2018-06-03T07:04:15.042Z,1011.19
2018-06-03T07:05:15.039Z,1011.17
2018-06-03T07:06:15.045Z,1011.18
2018-06-03T07:07:15.010Z,1011.16
2018-06-03T07:08:15.011Z,1011.18
2018-06-03T07:09:14.989Z,1011.16
2018-06-03T07:10:14.981Z,1011.18
2018-06-03T07:11:14.981Z,1011.21
2018-06-03T07:12:14.985Z,1011.22
2018-06-03T07:13:15.040Z,1011.18
2018-06-03T07:14:14.954Z,1011.23
2018-06-03T07:15:14.947Z,1011.20
2018-06-03T07:16:14.932Z,1011.21
2018-06-03T07:17:14.920Z,1011.18
2018-06-03T07:18:14.922Z,1011.22
2018-06-03T07:19:14.898Z,1011.20
2018-06-03T07:20:14.891Z,1011.23
2018-06-03T07:21:14.904Z,1011.20
2018-06-03T07:22:14.880Z,1011.22
2018-06-03T07:23:14.918Z,1011.17
2018-06-03T07:24:14.874Z,1011.24
2018-06-03T07:25:14.871Z,1011.23
2018-06-03T07:26:14.862Z,1011.20
2018-06-03T07:27:14.844Z,1011.20
2018-06-03T07:28:14.848Z,1011.19
2018-06-03T07:29:14.844Z,1011.17
2018-06-03T07:30:14.818Z,1011.18
2018-06-03T07:31:14.805Z,1011.20
2018-06-03T07:32:14.812Z,1011.18
2018-06-03T07:33:14.837Z,1011.19
2018-06-03T07:34:14.802Z,1011.17
2018-06-03T07:35:14.769Z,1011.19
2018-06-03T07:36:14.754Z,1011.20
2018-06-03T07:37:14.753Z,1011.19
2018-06-03T07:38:14.769Z,1011.20
2018-06-03T07:39:14.727Z,1011.20
2018-06-03T07:40:14.740Z,1011.20
2018-06-03T07:41:14.733Z,1011.21
2018-06-03T07:42:14.705Z,1011.26
2018-06-03T07:43:14.694Z,1011.24
2018-06-03T07:44:14.685Z,1011.25
2018-06-03T07:45:14.684Z,1011.25
2018-06-03T07:46:14.691Z,1011.25
2018-06-03T07:47:14.669Z,1011.22
2018-06-03T07:48:14.658Z,1011.22
2018-06-03T07:49:14.659Z,1011.25
2018-06-03T07:50:14.653Z,1011.21
2018-06-03T07:51:14.658Z,1011.18
2018-06-03T07:52:14.629Z,1011.18
2018-06-03T07:53:14.641Z,1011.17
2018-06-03T07:54:14.624Z,1011.16
2018-06-03T07:55:14.626Z,1011.16
2018-06-03T07:56:14.595Z,1011.21
2018-06-03T07:57:14.630Z,1011.16
2018-06-03T07:58:14.574Z,1011.15
2018-06-03T07:59:14.564Z,1011.20
2018-06-03T08:00:14.591Z,1011.18
2018-06-03T08:01:14.569Z,1011.19
2018-06-03T08:02:14.546Z,1011.21
2018-06-03T08:03:14.642Z,1011.23
2018-06-03T08:04:14.535Z,1011.20
2018-06-03T08:05:14.524Z,1011.23
2018-06-03T08:06:14.536Z,1011.18
2018-06-03T08:07:14.512Z,1011.17
2018-06-03T08:08:14.506Z,1011.16
2018-06-03T08:09:14.503Z,1011.16
2018-06-03T08:10:14.484Z,1011.14
2018-06-03T08:11:14.481Z,1011.16
2018-06-03T08:12:14.477Z,1011.13
2018-06-03T08:13:14.476Z,1011.16
2018-06-03T08:14:14.463Z,1011.12
2018-06-03T08:15:14.469Z,1011.15
2018-06-03T08:16:14.466Z,1011.12
2018-06-03T08:17:14.420Z,1011.13
2018-06-03T08:18:14.410Z,1011.14
2018-06-03T08:19:14.413Z,1011.15
2018-06-03T08:20:14.403Z,1011.11
2018-06-03T08:21:14.399Z,1011.13
2018-06-03T08:22:14.400Z,1011.14
2018-06-03T08:23:14.386Z,1011.15
2018-06-03T08:24:14.389Z,1011.10
2018-06-03T08:25:14.362Z,1011.11
2018-06-03T08:26:14.371Z,1011.14
2018-06-03T08:27:14.360Z,1011.17
2018-06-03T08:28:14.358Z,1011.13
2018-06-03T08:29:14.339Z,1011.14
2018-06-03T08:30:14.326Z,1011.13
2018-06-03T08:31:14.345Z,1011.10
2018-06-03T08:32:14.313Z,1011.16
2018-06-03T08:33:14.302Z,1011.15
2018-06-03T08:34:14.291Z,1011.18
2018-06-03T08:35:14.297Z,1011.14
2018-06-03T08:36:14.290Z,1011.15
2018-06-03T08:37:14.280Z,1011.17
2018-06-03T08:38:14.277Z,1011.14
2018-06-03T08:39:14.263Z,1011.19
2018-06-03T08:40:14.245Z,1011.16
2018-06-03T08:41:14.227Z,1011.18
2018-06-03T08:42:14.246Z,1011.17
2018-06-03T08:43:14.253Z,1011.18
2018-06-03T08:44:14.213Z,1011.18
2018-06-03T08:45:14.223Z,1011.18
2018-06-03T08:46:14.207Z,1011.18
2018-06-03T08:47:14.215Z,1011.15
2018-06-03T08:48:14.182Z,1011.20
2018-06-03T08:49:14.253Z,1011.18
2018-06-03T08:50:14.191Z,1011.21
2018-06-03T08:51:14.159Z,1011.22
2018-06-03T08:52:14.140Z,1011.23
2018-06-03T08:53:14.137Z,1011.22
2018-06-03T08:54:14.159Z,1011.22
2018-06-03T08:55:14.119Z,1011.23
2018-06-03T08:56:14.134Z,1011.25
2018-06-03T08:57:14.124Z,1011.26
2018-06-03T08:58:14.095Z,1011.25
2018-06-03T08:59:14.105Z,1011.23
2018-06-03T09:00:14.085Z,1011.26
2018-06-03T09:01:14.079Z,1011.27
2018-06-03T09:02:14.066Z,1011.27
2018-06-03T09:03:14.042Z,1011.22
2018-06-03T09:04:14.039Z,1011.24
2018-06-03T09:05:14.055Z,1011.25
2018-06-03T09:06:14.027Z,1011.24
2018-06-03T09:07:14.009Z,1011.25
2018-06-03T09:08:14.018Z,1011.26
2018-06-03T09:09:14.014Z,1011.22
2018-06-03T09:10:13.999Z,1011.21
2018-06-03T09:11:13.983Z,1011.22
2018-06-03T09:12:13.966Z,1011.22
2018-06-03T09:13:13.951Z,1011.22
2018-06-03T09:14:13.972Z,1011.25
2018-06-03T09:15:13.949Z,1011.25
2018-06-03T09:16:13.949Z,1011.25
2018-06-03T09:17:13.927Z,1011.21
2018-06-03T09:18:13.913Z,1011.30
2018-06-03T09:19:13.905Z,1011.28
2018-06-03T09:20:13.901Z,1011.27
2018-06-03T09:21:13.896Z,1011.26
2018-06-03T09:22:13.884Z,1011.24
2018-06-03T09:23:13.902Z,1011.24
2018-06-03T09:24:13.879Z,1011.23
2018-06-03T09:25:13.865Z,1011.25
2018-06-03T09:26:13.881Z,1011.25
2018-06-03T09:27:13.837Z,1011.27
2018-06-03T09:28:13.841Z,1011.25
2018-06-03T09:29:13.845Z,1011.26
2018-06-03T09:30:13.830Z,1011.26
2018-06-03T09:31:13.821Z,1011.25
2018-06-03T09:32:13.789Z,1011.28
2018-06-03T09:33:13.783Z,1011.26
2018-06-03T09:34:13.796Z,1011.22
2018-06-03T09:35:13.774Z,1011.25
2018-06-03T09:36:13.790Z,1011.24
2018-06-03T09:37:13.781Z,1011.23
2018-06-03T09:38:13.764Z,1011.20
2018-06-03T09:39:13.741Z,1011.19
2018-06-03T09:40:13.738Z,1011.20
2018-06-03T09:41:13.724Z,1011.20
2018-06-03T09:42:13.718Z,1011.19
2018-06-03T09:43:13.721Z,1011.23
2018-06-03T09:44:13.717Z,1011.23
2018-06-03T09:45:13.684Z,1011.21
2018-06-03T09:46:13.703Z,1011.17
2018-06-03T09:47:13.656Z,1011.21
2018-06-03T09:48:13.659Z,1011.18
2018-06-03T09:49:13.654Z,1011.16
2018-06-03T09:50:13.658Z,1011.16
2018-06-03T09:51:13.633Z,1011.13
2018-06-03T09:52:13.633Z,1011.13
2018-06-03T09:53:13.699Z,1011.20
2018-06-03T09:54:13.620Z,1011.12
2018-06-03T09:55:13.586Z,1011.15
2018-06-03T09:56:13.625Z,1011.19
2018-06-03T09:57:13.606Z,1011.14
2018-06-03T09:58:13.569Z,1011.16
2018-06-03T09:59:13.553Z,1011.16
2018-06-03T10:00:13.556Z,1011.11
2018-06-03T10:01:13.546Z,1011.10
2018-06-03T10:02:13.703Z,1011.06
2018-06-03T10:03:13.547Z,1011.06
2018-06-03T10:04:13.519Z,1010.98
2018-06-03T10:05:13.506Z,1011.02
2018-06-03T10:06:13.521Z,1011.05
2018-06-03T10:07:13.497Z,1010.96
2018-06-03T10:08:13.509Z,1010.98
2018-06-03T10:09:13.490Z,1010.96
2018-06-03T10:10:13.545Z,1010.99
2018-06-03T10:11:13.482Z,1010.97
2018-06-03T10:12:13.463Z,1010.97
2018-06-03T10:13:13.456Z,1010.97
2018-06-03T10:14:13.436Z,1010.97
2018-06-03T10:15:13.439Z,1010.95
2018-06-03T10:16:13.474Z,1010.95
2018-06-03T10:17:13.416Z,1010.94
2018-06-03T10:18:13.418Z,1010.92
2018-06-03T10:19:13.407Z,1010.90
2018-06-03T10:20:13.400Z,1010.90
2018-06-03T10:21:13.390Z,1010.92
2018-06-03T10:22:13.407Z,1010.91
2018-06-03T10:23:13.387Z,1010.92
2018-06-03T10:24:13.393Z,1010.89
2018-06-03T10:25:13.359Z,1010.90
2018-06-03T10:26:13.377Z,1010.90
2018-06-03T10:27:13.366Z,1010.91
2018-06-03T10:28:13.333Z,1010.96
2018-06-03T10:29:13.436Z,1010.94
2018-06-03T10:30:13.357Z,1010.93
2018-06-03T10:31:13.319Z,1010.92
2018-06-03T10:32:13.324Z,1010.93
2018-06-03T10:33:13.356Z,1010.94
2018-06-03T10:34:13.309Z,1010.94
2018-06-03T10:35:13.292Z,1010.93
2018-06-03T10:36:13.298Z,1010.94
2018-06-03T10:37:13.310Z,1010.95
2018-06-03T10:38:13.282Z,1010.97
2018-06-03T10:39:13.266Z,1010.99
2018-06-03T10:40:13.263Z,1010.97
2018-06-03T10:41:13.296Z,1011.00
2018-06-03T10:42:13.269Z,1010.99
2018-06-03T10:43:13.247Z,1010.95
2018-06-03T10:44:13.247Z,1010.98
2018-06-03T10:45:13.229Z,1010.95
2018-06-03T10:46:13.226Z,1010.97
2018-06-03T10:47:13.216Z,1010.94
2018-06-03T10:48:13.206Z,1010.92
2018-06-03T10:49:13.186Z,1010.93
2018-06-03T10:50:13.187Z,1010.97
2018-06-03T10:51:13.188Z,1010.99
2018-06-03T10:52:13.166Z,1011.01
2018-06-03T10:53:13.171Z,1010.95
2018-06-03T10:54:13.223Z,1011.00
2018-06-03T10:55:13.158Z,1010.99
2018-06-03T10:56:13.193Z,1010.96
2018-06-03T10:57:13.136Z,1010.98
2018-06-03T10:58:13.135Z,1010.98
2018-06-03T10:59:13.123Z,1010.98
2018-06-03T11:00:13.122Z,1011.00
2018-06-03T11:01:13.104Z,1010.98
2018-06-03T11:02:13.177Z,1010.98
2018-06-03T11:03:13.106Z,1010.93
2018-06-03T11:04:13.088Z,1010.96
2018-06-03T11:05:13.089Z,1010.93
2018-06-03T11:06:13.082Z,1010.88
2018-06-03T11:07:13.066Z,1010.88
2018-06-03T11:08:13.079Z,1010.87
2018-06-03T11:09:13.056Z,1010.88
2018-06-03T11:10:13.058Z,1010.85
2018-06-03T11:11:13.048Z,1010.85
2018-06-03T11:12:13.041Z,1010.85
2018-06-03T11:13:13.062Z,1010.85
2018-06-03T11:14:13.065Z,1010.84
2018-06-03T11:15:13.039Z,1010.76
2018-06-03T11:16:13.015Z,1010.76
2018-06-03T11:17:13.006Z,1010.79
2018-06-03T11:18:13.000Z,1010.77
2018-06-03T11:19:12.999Z,1010.69
2018-06-03T11:20:13.007Z,1010.70
2018-06-03T11:21:12.988Z,1010.69
2018-06-03T11:22:12.973Z,1010.72
2018-06-03T11:23:12.965Z,1010.69
2018-06-03T11:24:12.962Z,1010.63
2018-06-03T11:25:12.980Z,1010.66
2018-06-03T11:26:12.945Z,1010.65
2018-06-03T11:27:12.942Z,1010.69
2018-06-03T11:28:12.968Z,1010.62
2018-06-03T11:29:12.928Z,1010.66
2018-06-03T11:30:12.920Z,1010.63
2018-06-03T11:31:12.912Z,1010.71
2018-06-03T11:32:12.913Z,1010.65
2018-06-03T11:33:12.924Z,1010.66
2018-06-03T11:34:12.887Z,1010.65
2018-06-03T11:35:12.889Z,1010.65
2018-06-03T11:36:12.912Z,1010.63
2018-06-03T11:37:12.893Z,1010.62
2018-06-03T11:38:12.875Z,1010.68
2018-06-03T11:39:12.852Z,1010.70
2018-06-03T11:40:12.872Z,1010.65
2018-06-03T11:41:12.836Z,1010.67
2018-06-03T11:42:12.827Z,1010.64
2018-06-03T11:43:12.835Z,1010.62
2018-06-03T11:44:12.819Z,1010.66
2018-06-03T11:45:12.811Z,1010.59
2018-06-03T11:46:12.800Z,1010.64
2018-06-03T11:47:12.794Z,1010.62
2018-06-03T11:48:12.788Z,1010.64
2018-06-03T11:49:12.787Z,1010.62
2018-06-03T11:50:12.775Z,1010.65
2018-06-03T11:51:12.838Z,1010.70
2018-06-03T11:52:12.769Z,1010.68
2018-06-03T11:53:12.741Z,1010.66
2018-06-03T11:54:12.746Z,1010.62
2018-06-03T11:55:12.750Z,1010.68
2018-06-03T11:56:12.727Z,1010.69
2018-06-03T11:57:12.712Z,1010.70
2018-06-03T11:58:12.713Z,1010.63
2018-06-03T11:59:12.771Z,1010.68
2018-06-03T12:00:12.759Z,1010.60
2018-06-03T12:01:12.759Z,1010.62
2018-06-03T12:02:12.689Z,1010.70
2018-06-03T12:03:12.754Z,1010.67
2018-06-03T12:04:12.708Z,1010.69
2018-06-03T12:05:12.660Z,1010.65
2018-06-03T12:06:12.698Z,1010.62
2018-06-03T12:07:12.714Z,1010.61
2018-06-03T12:08:12.706Z,1010.62
2018-06-03T12:09:12.636Z,1010.52
2018-06-03T12:10:12.627Z,1010.62
2018-06-03T12:11:12.627Z,1010.62
2018-06-03T12:12:12.608Z,1010.59
2018-06-03T12:13:12.622Z,1010.55
2018-06-03T12:14:12.623Z,1010.57
2018-06-03T12:15:12.593Z,1010.57
2018-06-03T12:16:12.625Z,1010.58
2018-06-03T12:17:12.574Z,1010.58
2018-06-03T12:18:12.579Z,1010.56
2018-06-03T12:19:12.575Z,1010.52
2018-06-03T12:20:12.575Z,1010.50
2018-06-03T12:21:12.548Z,1010.52
2018-06-03T12:22:12.548Z,1010.51
2018-06-03T12:23:12.544Z,1010.54
2018-06-03T12:24:12.576Z,1010.52
2018-06-03T12:25:12.511Z,1010.46
2018-06-03T12:26:12.509Z,1010.43
2018-06-03T12:27:12.504Z,1010.44
2018-06-03T12:28:12.512Z,1010.48
2018-06-03T12:29:12.552Z,1010.47
2018-06-03T12:30:12.478Z,1010.43
2018-06-03T12:31:12.466Z,1010.45
2018-06-03T12:32:12.479Z,1010.43
2018-06-03T12:33:12.468Z,1010.42
2018-06-03T12:34:12.500Z,1010.39
2018-06-03T12:35:12.441Z,1010.35
2018-06-03T12:36:12.466Z,1010.32
2018-06-03T12:37:12.425Z,1010.32
2018-06-03T12:38:12.425Z,1010.33
2018-06-03T12:39:12.409Z,1010.34
2018-06-03T12:40:12.644Z,1010.31
2018-06-03T12:41:12.426Z,1010.36
2018-06-03T12:42:12.402Z,1010.33
2018-06-03T12:43:12.399Z,1010.33
2018-06-03T12:44:12.384Z,1010.35
2018-06-03T12:45:12.375Z,1010.30
2018-06-03T12:46:12.399Z,1010.29
2018-06-03T12:47:12.388Z,1010.31
2018-06-03T12:48:12.357Z,1010.31
2018-06-03T12:49:12.348Z,1010.32
2018-06-03T12:50:12.324Z,1010.28
2018-06-03T12:51:12.333Z,1010.29
2018-06-03T12:52:12.328Z,1010.18
2018-06-03T12:53:12.312Z,1010.27
2018-06-03T12:54:12.346Z,1010.19
2018-06-03T12:55:12.291Z,1010.21
2018-06-03T12:56:12.292Z,1010.17
2018-06-03T12:57:12.344Z,1010.15
2018-06-03T12:58:12.293Z,1010.11
2018-06-03T12:59:12.265Z,1010.12
2018-06-03T13:00:12.283Z,1010.10
2018-06-03T13:01:12.297Z,1010.09
2018-06-03T13:02:12.255Z,1010.11
2018-06-03T13:03:12.413Z,1010.10
2018-06-03T13:04:12.307Z,1010.08
2018-06-03T13:05:12.249Z,1010.08
2018-06-03T13:06:12.220Z,1010.15
2018-06-03T13:07:12.204Z,1010.09
2018-06-03T13:08:12.374Z,1010.12
2018-06-03T13:09:12.199Z,1010.14
2018-06-03T13:10:12.214Z,1010.13
2018-06-03T13:11:12.174Z,1010.08
2018-06-03T13:12:12.215Z,1010.10
2018-06-03T13:13:12.226Z,1010.13
2018-06-03T13:14:12.175Z,1010.10
2018-06-03T13:15:12.142Z,1010.10
2018-06-03T13:16:12.131Z,1010.08
2018-06-03T13:17:12.106Z,1010.12
2018-06-03T13:18:12.107Z,1010.06
2018-06-03T13:19:12.106Z,1010.05
2018-06-03T13:20:12.090Z,1010.07
2018-06-03T13:21:12.098Z,1010.11
2018-06-03T13:22:12.120Z,1010.09
2018-06-03T13:23:12.061Z,1010.04
2018-06-03T13:24:12.091Z,1010.06
2018-06-03T13:25:12.049Z,1010.06
2018-06-03T13:26:12.068Z,1010.04
2018-06-03T13:27:12.042Z,1010.02
2018-06-03T13:28:12.022Z,1010.04
2018-06-03T13:29:12.022Z,1010.02
2018-06-03T13:30:12.028Z,1010.05
2018-06-03T13:31:12.001Z,1010.02
2018-06-03T13:32:12.020Z,1010.00
2018-06-03T13:33:11.995Z,1009.97
2018-06-03T13:34:11.986Z,1009.99
2018-06-03T13:35:11.978Z,1009.96
2018-06-03T13:36:11.960Z,1009.97
2018-06-03T13:37:11.964Z,1010.01
2018-06-03T13:38:11.943Z,1009.97
2018-06-03T13:39:11.951Z,1009.91
2018-06-03T13:40:11.933Z,1010.04
2018-06-03T13:41:11.924Z,1009.98
2018-06-03T13:42:11.932Z,1009.93
2018-06-03T13:43:11.908Z,1009.96
2018-06-03T13:44:11.924Z,1009.93
2018-06-03T13:45:11.886Z,1009.95
2018-06-03T13:46:11.896Z,1009.92
2018-06-03T13:47:11.872Z,1009.89
2018-06-03T13:48:11.863Z,1009.88
2018-06-03T13:49:11.903Z,1009.89
2018-06-03T13:50:11.856Z,1009.90
2018-06-03T13:51:11.832Z,1009.90
2018-06-03T13:52:11.855Z,1009.86
2018-06-03T13:53:11.823Z,1009.84
2018-06-03T13:54:11.823Z,1009.83
2018-06-03T13:55:11.811Z,1009.78
2018-06-03T13:56:11.796Z,1009.73
2018-06-03T13:57:11.801Z,1009.72
2018-06-03T13:58:11.777Z,1009.70
2018-06-03T13:59:11.816Z,1009.73
2018-06-03T14:00:11.773Z,1009.72
2018-06-03T14:01:11.761Z,1009.67
2018-06-03T14:02:11.761Z,1009.68
2018-06-03T14:03:11.740Z,1009.68
2018-06-03T14:04:11.730Z,1009.65
2018-06-03T14:05:11.777Z,1009.68
2018-06-03T14:06:11.716Z,1009.61
2018-06-03T14:07:11.708Z,1009.60
2018-06-03T14:08:11.723Z,1009.63
2018-06-03T14:09:11.706Z,1009.62
2018-06-03T14:10:11.679Z,1009.57
2018-06-03T14:11:11.677Z,1009.55
2018-06-03T14:12:11.708Z,1009.56
2018-06-03T14:13:11.669Z,1009.61
2018-06-03T14:14:11.646Z,1009.58
2018-06-03T14:15:11.728Z,1009.54
2018-06-03T14:16:11.667Z,1009.60
2018-06-03T14:17:11.628Z,1009.62
2018-06-03T14:18:11.619Z,1009.61
2018-06-03T14:19:11.614Z,1009.58
2018-06-03T14:20:11.612Z,1009.59
2018-06-03T14:21:11.594Z,1009.58
2018-06-03T14:22:11.601Z,1009.52
2018-06-03T14:23:11.575Z,1009.55
2018-06-03T14:24:11.592Z,1009.56
2018-06-03T14:25:11.558Z,1009.55
2018-06-03T14:26:11.573Z,1009.58
2018-06-03T14:27:11.556Z,1009.57
2018-06-03T14:28:11.589Z,1009.56
2018-06-03T14:29:11.560Z,1009.56
2018-06-03T14:30:11.532Z,1009.54
2018-06-03T14:31:11.532Z,1009.56
2018-06-03T14:32:11.574Z,1009.53
2018-06-03T14:33:11.493Z,1009.58
2018-06-03T14:34:11.485Z,1009.52
2018-06-03T14:35:11.481Z,1009.45
2018-06-03T14:36:11.500Z,1009.51
2018-06-03T14:37:11.472Z,1009.51
2018-06-03T14:38:11.454Z,1009.46
2018-06-03T14:39:11.439Z,1009.45
2018-06-03T14:40:11.433Z,1009.42
2018-06-03T14:41:11.501Z,1009.41
2018-06-03T14:42:11.432Z,1009.42
2018-06-03T14:43:11.410Z,1009.44
2018-06-03T14:44:11.418Z,1009.45
2018-06-03T14:45:11.390Z,1009.47
2018-06-03T14:46:11.388Z,1009.44
2018-06-03T14:47:11.377Z,1009.43
2018-06-03T14:48:11.408Z,1009.45
2018-06-03T14:49:11.356Z,1009.42
2018-06-03T14:50:11.355Z,1009.42
2018-06-03T14:51:11.361Z,1009.42
2018-06-03T14:52:11.344Z,1009.44
2018-06-03T14:53:11.335Z,1009.43
2018-06-03T14:54:11.330Z,1009.38
2018-06-03T14:55:11.332Z,1009.35
2018-06-03T14:56:11.331Z,1009.31
2018-06-03T14:57:11.301Z,1009.32
2018-06-03T14:58:11.312Z,1009.30
2018-06-03T14:59:11.273Z,1009.30
2018-06-03T15:00:11.228Z,1009.34
2018-06-03T15:01:11.225Z,1009.29
2018-06-03T15:02:11.214Z,1009.39
2018-06-03T15:03:11.210Z,1009.29
2018-06-03T15:04:11.186Z,1009.30
2018-06-03T15:05:11.194Z,1009.31
2018-06-03T15:06:11.214Z,1009.22
2018-06-03T15:07:11.166Z,1009.24
2018-06-03T15:08:11.226Z,1009.22
2018-06-03T15:09:11.152Z,1009.19
2018-06-03T15:10:11.196Z,1009.20
2018-06-03T15:11:11.140Z,1009.22
2018-06-03T15:12:11.249Z,1009.15
2018-06-03T15:13:11.137Z,1009.13
2018-06-03T15:14:11.124Z,1009.17
2018-06-03T15:15:11.113Z,1009.10
2018-06-03T15:16:11.105Z,1009.09
2018-06-03T15:17:11.112Z,1009.10
2018-06-03T15:18:11.112Z,1009.09
2018-06-03T15:19:11.127Z,1009.10
2018-06-03T15:20:11.105Z,1009.01
2018-06-03T15:21:11.106Z,1009.03
2018-06-03T15:22:11.090Z,1009.02
2018-06-03T15:23:11.092Z,1009.00
2018-06-03T15:24:11.082Z,1008.98
2018-06-03T15:25:11.090Z,1008.98
2018-06-03T15:26:11.083Z,1008.95
2018-06-03T15:27:11.133Z,1009.03
2018-06-03T15:28:11.055Z,1008.95
2018-06-03T15:29:11.047Z,1008.97
2018-06-03T15:30:11.029Z,1008.98
2018-06-03T15:31:11.037Z,1008.95
2018-06-03T15:32:11.036Z,1008.95
2018-06-03T15:33:11.002Z,1008.89
2018-06-03T15:34:11.006Z,1008.90
2018-06-03T15:35:10.999Z,1008.88
2018-06-03T15:36:11.057Z,1008.91
2018-06-03T15:37:10.988Z,1008.89
2018-06-03T15:38:10.986Z,1008.91
2018-06-03T15:39:10.973Z,1008.84
2018-06-03T15:40:10.971Z,1008.79
2018-06-03T15:41:10.937Z,1008.79
2018-06-03T15:42:10.942Z,1008.78
2018-06-03T15:43:10.926Z,1008.75
2018-06-03T15:44:10.934Z,1008.83
2018-06-03T15:45:10.919Z,1008.77
2018-06-03T15:46:10.925Z,1008.75
2018-06-03T15:47:10.898Z,1008.70
2018-06-03T15:48:10.974Z,1008.77
2018-06-03T15:49:10.909Z,1008.79
2018-06-03T15:50:10.981Z,1008.74
2018-06-03T15:51:10.866Z,1008.72
2018-06-03T15:52:10.877Z,1008.72
2018-06-03T15:53:10.879Z,1008.75
2018-06-03T15:54:10.886Z,1008.79
2018-06-03T15:55:10.836Z,1008.70
2018-06-03T15:56:10.950Z,1008.73
2018-06-03T15:57:10.920Z,1008.71
2018-06-03T15:58:10.862Z,1008.72
2018-06-03T15:59:10.822Z,1008.67
2018-06-03T16:00:10.822Z,1008.70
2018-06-03T16:01:10.800Z,1008.62
2018-06-03T16:02:10.779Z,1008.67
2018-06-03T16:03:10.816Z,1008.67
2018-06-03T16:04:10.885Z,1008.65
2018-06-03T16:05:10.751Z,1008.66
2018-06-03T16:06:10.762Z,1008.63
2018-06-03T16:07:10.783Z,1008.61
2018-06-03T16:08:10.736Z,1008.60
2018-06-03T16:09:10.723Z,1008.62
2018-06-03T16:10:10.712Z,1008.57
2018-06-03T16:11:10.719Z,1008.58
2018-06-03T16:12:10.727Z,1008.59
2018-06-03T16:13:10.707Z,1008.59
2018-06-03T16:14:10.674Z,1008.61
2018-06-03T16:15:10.685Z,1008.58
2018-06-03T16:16:10.666Z,1008.59
2018-06-03T16:17:10.655Z,1008.51
2018-06-03T16:18:10.659Z,1008.52
2018-06-03T16:19:10.662Z,1008.49
2018-06-03T16:20:10.624Z,1008.48
2018-06-03T16:21:10.620Z,1008.44
2018-06-03T16:22:10.626Z,1008.44
2018-06-03T16:23:10.599Z,1008.42
2018-06-03T16:24:10.603Z,1008.44
2018-06-03T16:25:10.580Z,1008.44
2018-06-03T16:26:10.580Z,1008.42
2018-06-03T16:27:10.610Z,1008.46
2018-06-03T16:28:10.627Z,1008.40
2018-06-03T16:29:10.539Z,1008.44
2018-06-03T16:30:10.529Z,1008.42
2018-06-03T16:31:10.521Z,1008.40
2018-06-03T16:32:10.501Z,1008.34
2018-06-03T16:33:10.514Z,1008.34
2018-06-03T16:34:10.481Z,1008.37
2018-06-03T16:35:10.483Z,1008.28
2018-06-03T16:36:10.484Z,1008.28
2018-06-03T16:37:10.453Z,1008.31
2018-06-03T16:38:10.468Z,1008.32
2018-06-03T16:39:10.444Z,1008.34
2018-06-03T16:40:10.428Z,1008.30
2018-06-03T16:41:10.414Z,1008.37
2018-06-03T16:42:10.395Z,1008.32
2018-06-03T16:43:10.404Z,1008.33
2018-06-03T16:44:10.393Z,1008.35
2018-06-03T16:45:10.393Z,1008.35
2018-06-03T16:46:10.382Z,1008.31
2018-06-03T16:47:10.367Z,1008.36
2018-06-03T16:48:10.356Z,1008.33
2018-06-03T16:49:10.338Z,1008.34
2018-06-03T16:50:10.332Z,1008.37
2018-06-03T16:51:10.334Z,1008.33
2018-06-03T16:52:10.318Z,1008.33
2018-06-03T16:53:10.320Z,1008.36
2018-06-03T16:54:10.296Z,1008.34
2018-06-03T16:55:10.288Z,1008.33
2018-06-03T16:56:10.275Z,1008.34
2018-06-03T16:57:10.269Z,1008.31
2018-06-03T16:58:10.273Z,1008.33
2018-06-03T16:59:10.258Z,1008.32
2018-06-03T17:00:10.238Z,1008.36
2018-06-03T17:01:10.235Z,1008.34
2018-06-03T17:02:10.241Z,1008.30
2018-06-03T17:03:10.217Z,1008.32
2018-06-03T17:04:10.199Z,1008.33
2018-06-03T17:05:10.188Z,1008.28
2018-06-03T17:06:10.188Z,1008.28
2018-06-03T17:07:10.209Z,1008.28
2018-06-03T17:08:10.165Z,1008.27
2018-06-03T17:09:10.148Z,1008.25
2018-06-03T17:10:10.167Z,1008.21
2018-06-03T17:11:10.135Z,1008.24
2018-06-03T17:12:10.127Z,1008.22
2018-06-03T17:13:10.120Z,1008.22
2018-06-03T17:14:10.110Z,1008.20
2018-06-03T17:15:10.092Z,1008.20
2018-06-03T17:16:10.112Z,1008.17
2018-06-03T17:17:10.079Z,1008.21
2018-06-03T17:18:10.090Z,1008.19
2018-06-03T17:19:10.196Z,1008.20
2018-06-03T17:20:10.076Z,1008.23
2018-06-03T17:21:10.059Z,1008.25
2018-06-03T17:22:10.038Z,1008.21
2018-06-03T17:23:10.052Z,1008.19
2018-06-03T17:24:10.029Z,1008.22
2018-06-03T17:25:10.009Z,1008.20
2018-06-03T17:26:10.009Z,1008.19
2018-06-03T17:27:09.994Z,1008.19
2018-06-03T17:28:10.037Z,1008.17
2018-06-03T17:29:09.984Z,1008.16
2018-06-03T17:30:09.996Z,1008.13
2018-06-03T17:31:09.962Z,1008.12
2018-06-03T17:32:09.944Z,1008.15
2018-06-03T17:33:09.947Z,1008.14
2018-06-03T17:34:09.961Z,1008.14
2018-06-03T17:35:09.924Z,1008.09
2018-06-03T17:36:09.914Z,1008.08
2018-06-03T17:37:09.912Z,1008.03
2018-06-03T17:38:09.904Z,1008.08
2018-06-03T17:39:09.868Z,1008.04
2018-06-03T17:40:09.889Z,1007.98
2018-06-03T17:41:09.877Z,1007.98
2018-06-03T17:42:09.848Z,1007.96
2018-06-03T17:43:09.872Z,1007.92
2018-06-03T17:44:09.851Z,1007.92
2018-06-03T17:45:09.855Z,1007.93
2018-06-03T17:46:09.843Z,1007.91
2018-06-03T17:47:09.836Z,1007.97
2018-06-03T17:48:09.821Z,1007.93
2018-06-03T17:49:09.797Z,1007.94
2018-06-03T17:50:09.774Z,1007.93
2018-06-03T17:51:09.784Z,1007.92
2018-06-03T17:52:09.813Z,1007.90
2018-06-03T17:53:09.772Z,1007.88
2018-06-03T17:54:09.778Z,1007.85
2018-06-03T17:55:09.725Z,1007.86
2018-06-03T17:56:09.749Z,1007.88
2018-06-03T17:57:09.713Z,1007.84
2018-06-03T17:58:09.697Z,1007.85
2018-06-03T17:59:09.701Z,1007.82
2018-06-03T18:00:09.699Z,1007.80
2018-06-03T18:01:09.711Z,1007.80
2018-06-03T18:02:09.662Z,1007.77
2018-06-03T18:03:09.677Z,1007.76
2018-06-03T18:04:09.638Z,1007.78
2018-06-03T18:05:09.695Z,1007.78
2018-06-03T18:06:09.655Z,1007.77
2018-06-03T18:07:09.652Z,1007.74
2018-06-03T18:08:09.609Z,1007.75
2018-06-03T18:09:09.603Z,1007.73
2018-06-03T18:10:09.591Z,1007.75
2018-06-03T18:11:09.606Z,1007.74
2018-06-03T18:12:09.571Z,1007.74
2018-06-03T18:13:09.562Z,1007.76
2018-06-03T18:14:09.561Z,1007.74
2018-06-03T18:15:09.534Z,1007.71
2018-06-03T18:16:09.533Z,1007.71
2018-06-03T18:17:09.546Z,1007.77
2018-06-03T18:18:09.516Z,1007.73
2018-06-03T18:19:09.498Z,1007.70
2018-06-03T18:20:09.495Z,1007.71
2018-06-03T18:21:09.484Z,1007.70
2018-06-03T18:22:09.482Z,1007.68
2018-06-03T18:23:09.500Z,1007.72